Time;durP1;ratioP1;P1;durP2;ratioP2;P2;SDS_P1;SDS_P2;PMS_P1;PMS_P2;Temp;Humidity;BMP_temperature;BMP_pressure;BME280_temperature;BME280_humidity;BME280_pressure;Samples;Min_cycle;Max_cycle;Signal;HPM_P1;HPM_P2
2022/01/16 00:01:58;;;;;;;71.38;26.10;;;;;;;;;;5008925;28;20053;-64
2022/01/16 00:04:24;;;;;;;75.47;26.95;;;;;;;;;;5021712;28;20049;-66
2022/01/16 00:06:51;;;;;;;73.13;27.40;;;;;;;;;;5013586;28;20045;-66
2022/01/16 00:09:17;;;;;;;70.55;26.10;;;;;;;;;;5024680;28;20041;-67
2022/01/16 00:11:44;;;;;;;80.03;27.45;;;;;;;;;;5014808;28;21103;-68
2022/01/16 00:14:11;;;;;;;72.97;26.92;;;;;;;;;;5026382;28;20049;-65
2022/01/16 00:16:39;;;;;;;68.72;27.50;;;;;;;;;;5019431;28;20442;-65
2022/01/16 00:19:06;;;;;;;60.60;25.52;;;;;;;;;;5018861;28;20050;-65
2022/01/16 00:21:35;;;;;;;75.32;28.33;;;;;;;;;;5024380;28;20153;-65
2022/01/16 00:24:02;;;;;;;69.88;28.08;;;;;;;;;;5018843;28;20067;-65
2022/01/16 00:26:28;;;;;;;68.32;27.08;;;;;;;;;;5026743;28;20052;-65
2022/01/16 00:28:54;;;;;;;76.20;28.73;;;;;;;;;;5012847;28;20064;-65
2022/01/16 00:31:22;;;;;;;68.78;26.42;;;;;;;;;;5020286;28;20107;-65
2022/01/16 00:33:49;;;;;;;71.55;26.40;;;;;;;;;;5023191;28;20045;-64
2022/01/16 00:36:17;;;;;;;68.68;28.55;;;;;;;;;;5015862;28;20048;-65
2022/01/16 00:38:45;;;;;;;73.22;26.38;;;;;;;;;;5021315;28;20064;-65
2022/01/16 00:41:12;;;;;;;70.90;27.38;;;;;;;;;;5010879;28;20501;-65
2022/01/16 00:43:38;;;;;;;71.15;28.23;;;;;;;;;;5015635;28;20049;-65
2022/01/16 00:46:04;;;;;;;76.70;29.67;;;;;;;;;;5017250;28;20049;-65
2022/01/16 00:48:31;;;;;;;76.68;30.02;;;;;;;;;;5023762;28;20041;-65
2022/01/16 00:50:57;;;;;;;93.25;32.85;;;;;;;;;;5029861;28;20068;-65
2022/01/16 00:53:24;;;;;;;87.60;30.95;;;;;;;;;;5010152;28;20052;-64
2022/01/16 00:55:50;;;;;;;82.03;30.70;;;;;;;;;;5015446;28;20469;-65
2022/01/16 00:58:16;;;;;;;75.38;29.23;;;;;;;;;;5007477;28;20059;-65
2022/01/16 01:00:43;;;;;;;93.95;31.85;;;;;;;;;;5021674;28;20051;-65
2022/01/16 01:03:11;;;;;;;73.45;28.80;;;;;;;;;;5008581;28;20099;-65
2022/01/16 01:05:37;;;;;;;86.57;31.67;;;;;;;;;;5021077;28;20103;-64
2022/01/16 01:08:04;;;;;;;78.88;31.88;;;;;;;;;;5018441;28;20046;-65
2022/01/16 01:10:36;;;;;;;74.13;31.33;;;;;;;;;;5017946;28;20336;-64
2022/01/16 01:13:22;;;;;;;86.53;30.45;;;;;;;;;;5013699;28;20041;-65
2022/01/16 01:15:52;;;;;;;74.97;30.33;;;;;;;;;;5013673;28;20144;-65
2022/01/16 01:18:22;;;;;;;79.65;29.00;;;;;;;;;;5020628;28;20054;-65
2022/01/16 01:20:50;;;;;;;84.57;28.45;;;;;;;;;;5020572;28;20053;-65
2022/01/16 01:23:17;;;;;;;;;;;;;;;;;;5016690;28;20497;-65
2022/01/16 01:25:43;;;;;;;78.90;27.73;;;;;;;;;;5015968;28;19936;-65
2022/01/16 01:28:11;;;;;;;70.68;27.80;;;;;;;;;;5012935;28;20053;-65
2022/01/16 01:30:39;;;;;;;82.53;27.40;;;;;;;;;;5021269;28;20057;-65
2022/01/16 01:33:06;;;;;;;77.63;27.17;;;;;;;;;;5010514;28;20083;-65
2022/01/16 01:35:38;;;;;;;62.47;26.90;;;;;;;;;;5022361;28;20053;-65
2022/01/16 01:38:05;;;;;;;69.05;27.60;;;;;;;;;;5008001;28;20052;-65
2022/01/16 01:40:32;;;;;;;59.65;24.83;;;;;;;;;;5021702;28;20462;-65
2022/01/16 01:43:04;;;;;;;64.45;25.83;;;;;;;;;;5020531;28;20325;-65
2022/01/16 01:51:17;;;;;;;72.40;27.10;;;;;;;;;;5012839;28;20057;-65
2022/01/16 01:53:44;;;;;;;115.78;31.45;;;;;;;;;;5009506;28;20761;-65
2022/01/16 01:56:12;;;;;;;65.50;25.55;;;;;;;;;;5016394;28;20053;-65
2022/01/16 01:58:39;;;;;;;72.00;26.80;;;;;;;;;;5023424;28;20056;-66
2022/01/16 02:01:05;;;;;;;89.93;26.95;;;;;;;;;;5013491;28;20993;-65
2022/01/16 02:03:54;;;;;;;70.93;27.08;;;;;;;;;;5019647;28;20144;-65
2022/01/16 02:06:20;;;;;;;77.20;27.67;;;;;;;;;;5020715;28;20049;-65
2022/01/16 02:08:52;;;;;;;100.28;27.63;;;;;;;;;;4992426;28;20057;-65
2022/01/16 02:11:20;;;;;;;88.25;26.88;;;;;;;;;;5020673;28;20418;-65
2022/01/16 02:13:53;;;;;;;111.32;25.77;;;;;;;;;;5011120;28;20100;-65
2022/01/16 02:35:43;;;;;;;91.57;28.83;;;;;;;;;;5011103;28;20543;-65
2022/01/16 02:38:10;;;;;;;68.72;26.42;;;;;;;;;;5031674;28;20050;-65
2022/01/16 02:40:40;;;;;;;77.85;27.70;;;;;;;;;;5025683;28;20049;-65
2022/01/16 02:43:06;;;;;;;76.45;27.65;;;;;;;;;;5018695;28;20056;-65
2022/01/16 02:45:36;;;;;;;69.30;25.50;;;;;;;;;;5023546;28;20073;-65
2022/01/16 02:48:05;;;;;;;82.88;25.33;;;;;;;;;;5019197;28;20067;-65
2022/01/16 02:50:33;;;;;;;78.82;26.23;;;;;;;;;;5017214;28;20048;-65
2022/01/16 02:53:00;;;;;;;66.07;25.17;;;;;;;;;;5018797;28;20259;-65
2022/01/16 02:55:27;;;;;;;82.43;25.55;;;;;;;;;;5024500;28;20057;-65
2022/01/16 02:57:54;;;;;;;83.65;27.17;;;;;;;;;;5026228;28;20053;-65
2022/01/16 03:00:21;;;;;;;77.25;25.92;;;;;;;;;;5008699;28;20095;-65
2022/01/16 03:02:48;;;;;;;80.32;26.98;;;;;;;;;;5022341;28;20545;-65
2022/01/16 03:05:14;;;;;;;73.47;25.05;;;;;;;;;;5018310;28;20148;-65
2022/01/16 03:07:42;;;;;;;82.90;27.70;;;;;;;;;;5029737;28;20505;-65
2022/01/16 03:12:42;;;;;;;73.70;26.65;;;;;;;;;;5025088;28;20221;-65
2022/01/16 03:15:08;;;;;;;76.05;28.00;;;;;;;;;;5013629;28;20045;-65
2022/01/16 03:17:40;;;;;;;65.90;25.15;;;;;;;;;;5015258;28;20069;-65
2022/01/16 03:22:52;;;;;;;74.03;27.13;;;;;;;;;;5018441;28;20510;-65
2022/01/16 03:25:18;;;;;;;73.63;25.33;;;;;;;;;;5025770;28;20087;-66
2022/01/16 03:27:44;;;;;;;74.75;26.85;;;;;;;;;;5009550;28;20534;-65
2022/01/16 03:30:12;;;;;;;67.68;26.77;;;;;;;;;;5013405;28;20050;-65
2022/01/16 03:32:38;;;;;;;72.68;28.08;;;;;;;;;;5024200;28;20049;-65
2022/01/16 03:35:05;;;;;;;83.30;27.75;;;;;;;;;;5018271;28;20053;-65
2022/01/16 03:37:31;;;;;;;70.40;25.42;;;;;;;;;;5022015;28;20060;-66
2022/01/16 03:39:57;;;;;;;89.50;25.67;;;;;;;;;;5016142;28;20081;-65
2022/01/16 03:42:28;;;;;;;72.13;24.95;;;;;;;;;;5017559;28;20052;-65
2022/01/16 03:44:54;;;;;;;72.57;25.00;;;;;;;;;;5013283;28;20779;-65
2022/01/16 03:47:21;;;;;;;90.97;26.67;;;;;;;;;;5018754;28;20706;-66
2022/01/16 03:49:47;;;;;;;97.07;26.85;;;;;;;;;;5036222;28;20544;-65
2022/01/16 03:52:13;;;;;;;109.10;27.73;;;;;;;;;;5009796;28;20049;-66
2022/01/16 03:54:40;;;;;;;105.22;28.17;;;;;;;;;;5030886;28;20486;-66
2022/01/16 03:57:06;;;;;;;93.22;27.42;;;;;;;;;;5006617;28;20049;-66
2022/01/16 03:59:34;;;;;;;115.15;28.13;;;;;;;;;;5026042;28;20537;-66
2022/01/16 04:02:01;;;;;;;95.85;25.92;;;;;;;;;;5022349;28;20593;-66
2022/01/16 04:04:27;;;;;;;68.53;26.13;;;;;;;;;;5024873;28;20053;-66
2022/01/16 04:06:53;;;;;;;71.75;27.05;;;;;;;;;;5017330;28;20045;-66
2022/01/16 04:09:20;;;;;;;74.28;25.95;;;;;;;;;;5013349;28;20048;-65
2022/01/16 04:11:52;;;;;;;73.18;24.63;;;;;;;;;;5002096;28;20041;-65
2022/01/16 04:14:26;;;;;;;72.65;27.65;;;;;;;;;;5026364;28;20052;-65
2022/01/16 04:16:52;;;;;;;74.70;26.52;;;;;;;;;;5019765;28;20486;-65
2022/01/16 04:19:20;;;;;;;75.32;27.52;;;;;;;;;;5029076;28;20080;-65
2022/01/16 04:21:47;;;;;;;82.15;27.90;;;;;;;;;;5010419;28;20546;-65
2022/01/16 04:24:13;;;;;;;79.22;28.15;;;;;;;;;;5019541;28;20333;-65
2022/01/16 04:26:39;;;;;;;75.22;27.33;;;;;;;;;;5007795;28;20056;-65
2022/01/16 04:29:06;;;;;;;69.70;25.80;;;;;;;;;;5024306;28;20053;-66
2022/01/16 04:31:32;;;;;;;69.45;25.98;;;;;;;;;;5021200;28;20408;-65
2022/01/16 04:33:58;;;;;;;69.82;28.35;;;;;;;;;;5025117;28;20057;-65
2022/01/16 04:36:25;;;;;;;75.78;28.00;;;;;;;;;;5020122;28;20081;-65
2022/01/16 04:38:52;;;;;;;71.68;27.27;;;;;;;;;;5008292;28;20223;-65
2022/01/16 04:44:04;;;;;;;64.40;25.27;;;;;;;;;;5013838;28;20839;-65
2022/01/16 04:46:31;;;;;;;69.65;27.50;;;;;;;;;;5021704;28;20105;-65
2022/01/16 04:48:58;;;;;;;65.97;28.05;;;;;;;;;;5014496;28;20053;-65
2022/01/16 04:51:26;;;;;;;66.82;27.35;;;;;;;;;;5020353;28;20057;-65
2022/01/16 04:53:52;;;;;;;64.65;27.02;;;;;;;;;;5015409;28;20299;-65
2022/01/16 04:56:18;;;;;;;66.82;27.58;;;;;;;;;;5015082;28;20054;-65
2022/01/16 04:58:45;;;;;;;62.13;27.77;;;;;;;;;;5022233;28;20072;-65
2022/01/16 05:01:12;;;;;;;64.25;26.45;;;;;;;;;;5019301;28;20387;-66
2022/01/16 05:03:39;;;;;;;67.72;27.38;;;;;;;;;;5021131;28;20050;-66
2022/01/16 05:06:05;;;;;;;74.07;30.10;;;;;;;;;;5017812;28;20045;-64
2022/01/16 05:08:32;;;;;;;67.80;28.60;;;;;;;;;;5010399;28;20674;-65
2022/01/16 05:10:58;;;;;;;64.65;29.67;;;;;;;;;;5030262;28;20050;-65
2022/01/16 05:18:50;;;;;;;78.07;30.92;;;;;;;;;;5007455;28;20072;-65
2022/01/16 05:21:17;;;;;;;68.00;29.27;;;;;;;;;;5028916;28;20057;-65
2022/01/16 05:23:43;;;;;;;71.43;30.17;;;;;;;;;;5011372;28;20049;-65
2022/01/16 05:26:11;;;;;;;73.03;31.13;;;;;;;;;;5024248;28;20064;-65
2022/01/16 05:28:37;;;;;;;77.25;32.03;;;;;;;;;;5018212;28;20041;-65
2022/01/16 05:31:04;;;;;;;66.40;30.10;;;;;;;;;;5021123;28;20129;-66
2022/01/16 05:33:30;;;;;;;74.70;30.92;;;;;;;;;;5011598;28;20168;-66
2022/01/16 05:35:56;;;;;;;74.75;30.42;;;;;;;;;;5012339;28;20053;-65
2022/01/16 05:38:23;;;;;;;70.00;30.88;;;;;;;;;;5022778;28;20057;-65
2022/01/16 05:40:49;;;;;;;79.95;32.60;;;;;;;;;;5024197;28;20054;-65
2022/01/16 05:43:15;;;;;;;73.80;29.13;;;;;;;;;;5011940;28;20049;-65
2022/01/16 05:45:42;;;;;;;72.25;31.08;;;;;;;;;;5022455;28;20077;-65
2022/01/16 05:48:08;;;;;;;80.43;31.77;;;;;;;;;;5004083;28;20061;-65
2022/01/16 05:50:34;;;;;;;80.35;32.55;;;;;;;;;;5017251;28;20092;-65
2022/01/16 05:53:01;;;;;;;77.63;31.70;;;;;;;;;;5011446;28;20041;-65
2022/01/16 05:55:33;;;;;;;78.28;32.90;;;;;;;;;;5021512;28;20128;-65
2022/01/16 05:57:59;;;;;;;81.10;33.38;;;;;;;;;;5019441;28;20470;-65
2022/01/16 06:00:26;;;;;;;76.85;31.58;;;;;;;;;;5012957;28;20061;-65
2022/01/16 06:02:52;;;;;;;80.47;33.42;;;;;;;;;;5014020;28;20684;-65
2022/01/16 06:05:18;;;;;;;84.70;33.58;;;;;;;;;;5013348;28;20049;-66
2022/01/16 06:07:50;;;;;;;85.57;34.13;;;;;;;;;;5024231;28;20052;-66
2022/01/16 06:10:17;;;;;;;80.65;35.10;;;;;;;;;;5016670;28;20163;-65
2022/01/16 06:12:43;;;;;;;87.10;32.80;;;;;;;;;;5020199;28;20045;-65
2022/01/16 06:15:10;;;;;;;84.82;35.35;;;;;;;;;;5014792;28;20053;-65
2022/01/16 06:17:36;;;;;;;83.55;34.22;;;;;;;;;;5001778;28;20052;-65
2022/01/16 06:20:03;;;;;;;84.20;34.15;;;;;;;;;;5018484;28;20045;-66
2022/01/16 06:22:29;;;;;;;86.40;36.38;;;;;;;;;;5013239;28;20049;-66
2022/01/16 06:24:55;;;;;;;79.57;33.28;;;;;;;;;;5016890;28;20248;-66
2022/01/16 06:27:22;;;;;;;79.25;33.40;;;;;;;;;;5025116;28;20049;-65
2022/01/16 06:29:48;;;;;;;79.82;34.00;;;;;;;;;;5005588;28;20049;-66
2022/01/16 06:32:14;;;;;;;91.05;36.00;;;;;;;;;;5016785;28;20064;-66
2022/01/16 06:34:41;;;;;;;88.13;34.42;;;;;;;;;;5011538;28;20046;-66
2022/01/16 06:37:07;;;;;;;83.07;33.38;;;;;;;;;;5032924;28;20172;-66
2022/01/16 06:39:34;;;;;;;78.18;35.25;;;;;;;;;;5009236;28;20057;-66
2022/01/16 06:42:00;;;;;;;91.53;37.60;;;;;;;;;;5023635;28;20060;-66
2022/01/16 06:44:42;;;;;;;79.50;35.63;;;;;;;;;;5004979;28;20049;-66
2022/01/16 06:47:08;;;;;;;86.13;36.90;;;;;;;;;;5020558;28;20059;-66
2022/01/16 06:49:35;;;;;;;83.20;35.55;;;;;;;;;;5021014;28;20422;-66
2022/01/16 06:52:01;;;;;;;84.80;37.90;;;;;;;;;;5014145;28;20050;-66
2022/01/16 06:54:28;;;;;;;87.80;35.17;;;;;;;;;;5008584;28;20472;-66
2022/01/16 06:56:54;;;;;;;91.43;37.92;;;;;;;;;;5011297;28;20477;-66
2022/01/16 06:59:20;;;;;;;87.72;38.28;;;;;;;;;;5012416;28;20430;-66
2022/01/16 07:01:48;;;;;;;86.90;37.83;;;;;;;;;;5023699;28;20379;-66
2022/01/16 07:04:14;;;;;;;90.07;37.85;;;;;;;;;;5009763;28;20042;-66
2022/01/16 07:06:41;;;;;;;87.68;36.53;;;;;;;;;;5020013;28;20049;-66
2022/01/16 07:09:07;;;;;;;84.22;38.00;;;;;;;;;;5023400;28;20049;-66
2022/01/16 07:11:33;;;;;;;81.20;36.40;;;;;;;;;;5018533;28;20254;-66
2022/01/16 07:13:59;;;;;;;74.45;33.42;;;;;;;;;;5011500;28;20049;-66
2022/01/16 07:16:26;;;;;;;84.28;36.58;;;;;;;;;;5018990;28;20049;-66
2022/01/16 07:18:52;;;;;;;82.80;36.58;;;;;;;;;;5006459;28;20041;-66
2022/01/16 07:21:19;;;;;;;80.60;36.58;;;;;;;;;;5014232;28;20060;-65
2022/01/16 07:23:46;;;;;;;81.85;36.72;;;;;;;;;;5027287;28;20045;-67
2022/01/16 07:26:17;;;;;;;73.20;35.25;;;;;;;;;;5009856;28;20059;-68
2022/01/16 07:28:43;;;;;;;77.35;35.05;;;;;;;;;;5021119;28;20167;-67
2022/01/16 07:31:10;;;;;;;71.82;33.40;;;;;;;;;;5013967;28;20060;-65
2022/01/16 07:33:36;;;;;;;69.28;34.58;;;;;;;;;;5028105;28;20061;-65
2022/01/16 07:36:03;;;;;;;77.38;35.65;;;;;;;;;;5020763;28;20052;-65
2022/01/16 07:38:29;;;;;;;69.97;34.47;;;;;;;;;;5016634;28;20041;-65
2022/01/16 07:40:56;;;;;;;74.80;35.25;;;;;;;;;;5013138;28;20343;-65
2022/01/16 07:43:23;;;;;;;64.68;32.55;;;;;;;;;;5023059;28;20045;-68
2022/01/16 07:45:49;;;;;;;66.38;33.08;;;;;;;;;;5020449;28;20050;-68
2022/01/16 07:48:15;;;;;;;66.25;32.92;;;;;;;;;;5023331;28;20561;-65
2022/01/16 07:50:42;;;;;;;74.82;34.88;;;;;;;;;;5017471;28;20701;-65
2022/01/16 07:53:08;;;;;;;70.63;34.72;;;;;;;;;;5018732;28;20466;-65
2022/01/16 07:55:35;;;;;;;58.35;30.80;;;;;;;;;;5009727;28;20045;-65
2022/01/16 07:58:01;;;;;;;67.22;33.40;;;;;;;;;;5022321;28;20049;-66
2022/01/16 08:00:30;;;;;;;63.30;30.65;;;;;;;;;;5011868;28;20056;-66
2022/01/16 08:02:57;;;;;;;68.80;34.53;;;;;;;;;;5025101;28;21025;-67
2022/01/16 08:05:24;;;;;;;62.40;31.70;;;;;;;;;;5020902;28;20045;-67
2022/01/16 08:07:51;;;;;;;67.22;32.67;;;;;;;;;;5008971;28;20080;-66
2022/01/16 08:10:17;;;;;;;64.40;30.65;;;;;;;;;;5016035;28;20362;-66
2022/01/16 08:12:43;;;;;;;62.53;30.65;;;;;;;;;;5012540;28;20045;-66
2022/01/16 08:15:10;;;;;;;57.75;29.75;;;;;;;;;;5028301;28;20053;-67
2022/01/16 08:17:36;;;;;;;68.43;32.15;;;;;;;;;;4996678;28;20045;-66
2022/01/16 08:20:04;;;;;;;61.35;30.40;;;;;;;;;;5023791;28;20042;-66
2022/01/16 08:22:30;;;;;;;60.20;32.08;;;;;;;;;;5029323;28;20068;-66
2022/01/16 08:24:57;;;;;;;64.05;30.63;;;;;;;;;;5013683;28;20049;-66
2022/01/16 08:27:23;;;;;;;58.70;30.38;;;;;;;;;;5019180;28;20092;-66
2022/01/16 08:29:49;;;;;;;55.17;29.55;;;;;;;;;;5024182;28;20049;-67
2022/01/16 08:32:16;;;;;;;59.78;31.67;;;;;;;;;;5022016;28;20041;-66
2022/01/16 08:34:42;;;;;;;57.40;29.38;;;;;;;;;;5017040;28;20244;-66
2022/01/16 08:37:09;;;;;;;56.13;29.20;;;;;;;;;;5011985;28;20671;-66
2022/01/16 08:39:35;;;;;;;58.45;30.20;;;;;;;;;;5029340;28;20152;-66
2022/01/16 08:42:01;;;;;;;56.63;29.25;;;;;;;;;;5009861;28;20053;-66
2022/01/16 08:44:28;;;;;;;53.58;28.13;;;;;;;;;;5023763;28;20056;-66
2022/01/16 08:46:54;;;;;;;50.60;26.80;;;;;;;;;;5018691;28;20107;-66
2022/01/16 08:49:20;;;;;;;56.13;28.25;;;;;;;;;;5020999;28;20044;-66
2022/01/16 08:51:47;;;;;;;51.50;28.45;;;;;;;;;;5027013;28;20050;-66
2022/01/16 08:54:13;;;;;;;55.00;29.50;;;;;;;;;;5014988;28;20053;-67
2022/01/16 08:56:39;;;;;;;52.20;28.05;;;;;;;;;;5029273;28;20493;-66
2022/01/16 08:59:06;;;;;;;47.80;25.40;;;;;;;;;;5018080;28;20569;-66
2022/01/16 09:01:32;;;;;;;52.63;27.02;;;;;;;;;;5025964;28;20060;-66
2022/01/16 09:03:59;;;;;;;47.60;26.75;;;;;;;;;;5009896;28;20307;-67
2022/01/16 09:06:27;;;;;;;50.13;25.50;;;;;;;;;;5028541;28;20049;-66
2022/01/16 09:08:54;;;;;;;46.40;25.55;;;;;;;;;;5019854;28;20044;-66
2022/01/16 09:11:25;;;;;;;47.13;24.73;;;;;;;;;;5013792;28;20075;-66
2022/01/16 09:13:51;;;;;;;46.92;25.25;;;;;;;;;;5021567;28;20057;-67
2022/01/16 09:16:19;;;;;;;54.28;26.08;;;;;;;;;;5018874;28;20072;-66
2022/01/16 09:18:46;;;;;;;46.63;25.45;;;;;;;;;;5013205;28;20056;-66
2022/01/16 09:21:13;;;;;;;43.53;24.27;;;;;;;;;;5003288;28;20051;-66
2022/01/16 09:23:39;;;;;;;46.30;25.13;;;;;;;;;;5019292;28;20049;-66
2022/01/16 09:26:06;;;;;;;49.42;26.60;;;;;;;;;;5025817;28;20056;-67
2022/01/16 09:28:33;;;;;;;54.50;27.88;;;;;;;;;;5013718;28;20045;-67
2022/01/16 09:30:59;;;;;;;53.55;25.58;;;;;;;;;;5021968;28;20414;-67
2022/01/16 09:33:25;;;;;;;54.10;25.90;;;;;;;;;;5012426;28;20061;-67
2022/01/16 09:35:52;;;;;;;51.72;25.92;;;;;;;;;;5022538;28;20179;-67
2022/01/16 09:38:18;;;;;;;50.55;26.50;;;;;;;;;;5019688;28;20049;-67
2022/01/16 09:40:46;;;;;;;52.88;27.10;;;;;;;;;;5023867;28;20072;-67
2022/01/16 09:43:12;;;;;;;47.88;25.40;;;;;;;;;;5022416;28;20364;-67
2022/01/16 09:45:39;;;;;;;58.00;29.05;;;;;;;;;;5009216;28;20275;-66
2022/01/16 09:48:05;;;;;;;49.40;26.40;;;;;;;;;;5014240;28;20083;-67
2022/01/16 09:50:31;;;;;;;51.60;25.85;;;;;;;;;;5016805;28;20057;-66
2022/01/16 09:52:59;;;;;;;52.00;27.10;;;;;;;;;;5027449;28;20053;-66
2022/01/16 09:55:26;;;;;;;53.65;26.35;;;;;;;;;;5026807;28;20061;-67
2022/01/16 09:57:56;;;;;;;51.13;26.20;;;;;;;;;;5015216;28;20512;-67
2022/01/16 10:00:24;;;;;;;56.22;28.90;;;;;;;;;;5018370;28;20068;-67
2022/01/16 10:02:51;;;;;;;54.85;27.35;;;;;;;;;;5024454;28;20290;-66
2022/01/16 10:05:22;;;;;;;59.38;29.98;;;;;;;;;;5020897;28;20055;-67
2022/01/16 10:07:49;;;;;;;64.13;26.80;;;;;;;;;;5012678;28;20167;-66
2022/01/16 10:10:15;;;;;;;64.13;26.58;;;;;;;;;;5012243;28;20491;-67
2022/01/16 10:12:51;;;;;;;66.25;28.63;;;;;;;;;;5016746;28;20052;-67
2022/01/16 10:15:22;;;;;;;53.55;26.80;;;;;;;;;;4999644;28;20575;-67
2022/01/16 10:17:49;;;;;;;59.05;24.58;;;;;;;;;;5025739;28;20510;-67
2022/01/16 10:20:19;;;;;;;64.97;31.50;;;;;;;;;;5011311;28;20543;-67
2022/01/16 10:22:50;;;;;;;60.35;28.25;;;;;;;;;;5021068;28;20053;-67
2022/01/16 10:25:24;;;;;;;64.50;28.60;;;;;;;;;;4992670;28;20469;-67
2022/01/16 10:27:51;;;;;;;65.43;28.83;;;;;;;;;;5013540;28;20577;-67
2022/01/16 10:30:18;;;;;;;70.43;32.33;;;;;;;;;;5013377;28;20049;-67
2022/01/16 10:32:45;;;;;;;70.80;30.80;;;;;;;;;;5008700;28;20060;-67
2022/01/16 10:35:11;;;;;;;65.78;29.95;;;;;;;;;;5016606;28;20057;-66
2022/01/16 10:37:40;;;;;;;65.88;30.27;;;;;;;;;;5012472;28;20049;-65
2022/01/16 10:40:15;;;;;;;68.60;30.38;;;;;;;;;;5019415;28;20057;-66
2022/01/16 10:42:47;;;;;;;66.75;29.67;;;;;;;;;;5012719;28;20045;-66
2022/01/16 10:45:14;;;;;;;69.80;31.35;;;;;;;;;;5028620;28;20052;-66
2022/01/16 10:47:40;;;;;;;76.47;34.03;;;;;;;;;;5018629;28;20052;-66
2022/01/16 10:50:17;;;;;;;68.50;31.75;;;;;;;;;;5011578;28;20049;-65
2022/01/16 10:52:51;;;;;;;74.18;32.35;;;;;;;;;;5017086;28;20060;-68
2022/01/16 10:55:19;;;;;;;69.22;31.58;;;;;;;;;;5028593;28;20040;-65
2022/01/16 10:57:46;;;;;;;73.13;32.97;;;;;;;;;;5030581;28;20067;-65
2022/01/16 11:00:17;;;;;;;76.10;32.85;;;;;;;;;;5028273;28;20060;-65
2022/01/16 11:02:45;;;;;;;75.78;35.35;;;;;;;;;;5031062;28;20041;-68
2022/01/16 11:05:13;;;;;;;85.63;37.70;;;;;;;;;;5024923;28;20110;-68
2022/01/16 11:07:40;;;;;;;84.03;36.22;;;;;;;;;;5025976;28;20144;-66
2022/01/16 11:10:20;;;;;;;92.38;38.28;;;;;;;;;;5037117;28;20414;-67
2022/01/16 11:12:47;;;;;;;86.88;34.45;;;;;;;;;;5019627;28;20529;-66
2022/01/16 11:15:13;;;;;;;92.72;35.47;;;;;;;;;;5034102;28;20388;-66
2022/01/16 11:17:40;;;;;;;84.32;35.85;;;;;;;;;;5024520;28;20049;-67
2022/01/16 11:20:07;;;;;;;89.78;36.55;;;;;;;;;;5030642;28;20056;-66
2022/01/16 11:22:56;;;;;;;86.90;35.25;;;;;;;;;;5021094;28;20168;-66
2022/01/16 11:25:31;;;;;;;92.05;36.85;;;;;;;;;;5034600;28;20049;-66
2022/01/16 11:28:08;;;;;;;80.70;36.38;;;;;;;;;;5026376;28;20599;-66
2022/01/16 11:30:36;;;;;;;85.47;36.83;;;;;;;;;;5037799;28;20048;-66
2022/01/16 11:33:02;;;;;;;93.00;36.20;;;;;;;;;;5022574;28;20049;-66
2022/01/16 11:35:29;;;;;;;82.20;35.50;;;;;;;;;;5023626;28;20052;-66
2022/01/16 11:37:56;;;;;;;85.78;36.53;;;;;;;;;;5029931;28;20050;-66
2022/01/16 11:40:28;;;;;;;96.70;37.42;;;;;;;;;;5026420;28;20045;-66
2022/01/16 11:43:12;;;;;;;87.85;34.35;;;;;;;;;;5028632;28;20073;-66
2022/01/16 11:45:46;;;;;;;79.38;32.92;;;;;;;;;;5023182;28;20052;-66
2022/01/16 11:48:16;;;;;;;83.85;34.28;;;;;;;;;;5022198;28;20505;-66
2022/01/16 11:50:42;;;;;;;88.28;34.08;;;;;;;;;;5025385;28;20037;-66
2022/01/16 11:53:09;;;;;;;86.97;33.28;;;;;;;;;;5030972;28;20049;-66
2022/01/16 11:55:35;;;;;;;93.65;35.47;;;;;;;;;;5035470;28;20278;-66
2022/01/16 11:58:01;;;;;;;88.53;33.78;;;;;;;;;;5027659;28;20548;-66
2022/01/16 12:00:44;;;;;;;96.85;35.83;;;;;;;;;;5026347;28;20049;-66
2022/01/16 12:03:29;;;;;;;92.13;34.38;;;;;;;;;;5022697;28;20071;-66
2022/01/16 12:06:14;;;;;;;103.03;36.25;;;;;;;;;;5030141;28;20099;-66
2022/01/16 12:08:45;;;;;;;103.22;36.53;;;;;;;;;;5021520;28;20057;-66
2022/01/16 12:11:30;;;;;;;94.25;36.03;;;;;;;;;;5039282;28;20049;-66
2022/01/16 12:13:58;;;;;;;85.53;33.05;;;;;;;;;;5020912;28;20045;-66
2022/01/16 12:16:35;;;;;;;84.00;31.80;;;;;;;;;;5029185;28;20056;-66
2022/01/16 12:19:21;;;;;;;106.95;37.65;;;;;;;;;;5028595;28;20455;-66
2022/01/16 12:21:54;;;;;;;93.63;33.42;;;;;;;;;;5026491;28;20498;-65
2022/01/16 12:24:37;;;;;;;95.18;34.70;;;;;;;;;;5029295;28;20075;-65
2022/01/16 12:27:22;;;;;;;102.30;34.85;;;;;;;;;;5023693;28;20055;-66
2022/01/16 12:30:07;;;;;;;94.95;34.60;;;;;;;;;;5019496;28;20076;-66
2022/01/16 12:33:09;;;;;;;105.07;37.45;;;;;;;;;;5031209;28;20060;-66
2022/01/16 12:35:41;;;;;;;99.30;35.83;;;;;;;;;;5004218;28;20053;-66
2022/01/16 12:38:10;;;;;;;97.22;33.67;;;;;;;;;;5016265;28;20141;-66
2022/01/16 12:40:43;;;;;;;99.10;33.42;;;;;;;;;;5004562;28;20060;-66
2022/01/16 12:43:13;;;;;;;90.20;34.25;;;;;;;;;;5012779;28;20127;-66
2022/01/16 12:45:40;;;;;;;93.47;36.20;;;;;;;;;;5027550;28;20041;-66
2022/01/16 12:48:07;;;;;;;109.05;38.13;;;;;;;;;;5029005;28;20423;-66
2022/01/16 12:50:34;;;;;;;93.78;35.10;;;;;;;;;;5017672;28;20041;-66
2022/01/16 12:53:00;;;;;;;88.20;32.33;;;;;;;;;;5019843;28;20292;-66
2022/01/16 12:55:27;;;;;;;92.78;34.08;;;;;;;;;;5010863;28;20052;-66
2022/01/16 12:57:54;;;;;;;89.88;32.17;;;;;;;;;;5010458;28;20046;-66
2022/01/16 13:00:21;;;;;;;96.88;36.78;;;;;;;;;;5018378;28;20152;-68
2022/01/16 13:02:53;;;;;;;97.05;35.65;;;;;;;;;;5007178;28;20045;-66
2022/01/16 13:05:20;;;;;;;95.63;33.83;;;;;;;;;;5017646;28;20049;-66
2022/01/16 13:07:58;;;;;;;105.50;35.75;;;;;;;;;;5014998;28;20049;-66
2022/01/16 13:10:25;;;;;;;107.65;35.25;;;;;;;;;;5013047;28;20049;-66
2022/01/16 13:12:51;;;;;;;96.90;35.38;;;;;;;;;;5010895;28;20050;-67
2022/01/16 13:15:21;;;;;;;93.60;33.10;;;;;;;;;;5011930;28;20057;-67
2022/01/16 13:17:47;;;;;;;95.97;33.97;;;;;;;;;;5018819;28;20057;-68
2022/01/16 13:20:20;;;;;;;106.78;37.80;;;;;;;;;;5011386;28;20046;-68
2022/01/16 13:22:46;;;;;;;99.13;36.58;;;;;;;;;;5016809;28;20060;-67
2022/01/16 13:25:13;;;;;;;106.10;38.13;;;;;;;;;;4988309;28;20461;-67
2022/01/16 13:27:40;;;;;;;104.78;37.95;;;;;;;;;;5019949;28;20053;-67
2022/01/16 13:30:10;;;;;;;107.50;37.40;;;;;;;;;;5007205;28;20141;-67
2022/01/16 13:32:37;;;;;;;100.03;37.03;;;;;;;;;;5020665;28;20577;-67
2022/01/16 13:35:23;;;;;;;114.28;38.63;;;;;;;;;;5015200;28;20483;-67
2022/01/16 13:37:56;;;;;;;103.75;35.97;;;;;;;;;;5005241;28;20049;-67
2022/01/16 13:40:26;;;;;;;100.82;37.15;;;;;;;;;;5011340;28;20041;-68
2022/01/16 13:43:02;;;;;;;100.63;36.63;;;;;;;;;;5013237;28;20045;-68
2022/01/16 13:45:35;;;;;;;102.43;38.42;;;;;;;;;;5014313;28;20050;-68
2022/01/16 13:48:03;;;;;;;71.05;29.00;;;;;;;;;;5011905;28;20049;-68
2022/01/16 13:50:31;;;;;;;95.47;35.80;;;;;;;;;;5013167;28;21092;-68
2022/01/16 13:53:02;;;;;;;87.70;34.60;;;;;;;;;;5013317;28;20041;-68
2022/01/16 13:55:29;;;;;;;89.78;35.22;;;;;;;;;;5007999;28;20475;-68
2022/01/16 13:57:56;;;;;;;100.30;36.80;;;;;;;;;;5020151;28;20494;-68
2022/01/16 14:00:29;;;;;;;92.25;33.30;;;;;;;;;;5007185;28;20041;-68
2022/01/16 14:03:09;;;;;;;86.78;33.95;;;;;;;;;;5021714;28;20395;-68
2022/01/16 14:05:39;;;;;;;99.75;36.60;;;;;;;;;;5004625;28;20053;-68
2022/01/16 14:08:20;;;;;;;87.55;33.20;;;;;;;;;;5017800;28;20514;-68
2022/01/16 14:10:47;;;;;;;81.15;32.72;;;;;;;;;;5008567;28;20053;-68
2022/01/16 14:13:13;;;;;;;84.75;34.58;;;;;;;;;;5020460;28;20054;-68
2022/01/16 14:15:39;;;;;;;81.95;31.88;;;;;;;;;;5014518;28;20064;-68
2022/01/16 14:18:15;;;;;;;71.60;29.15;;;;;;;;;;5010974;28;20049;-68
2022/01/16 14:21:58;;;;;;;85.00;31.50;;;;;;;;;;5010037;28;20125;-68
2022/01/16 14:23:34;;;;;;;72.78;31.17;;;;;;;;;;5010900;28;20057;-68
2022/01/16 14:26:00;;;;;;;78.78;32.20;;;;;;;;;;5015783;28;20065;-68
2022/01/16 14:28:26;;;;;;;77.05;31.58;;;;;;;;;;5013442;28;20076;-67
2022/01/16 14:30:53;;;;;;;72.43;31.52;;;;;;;;;;5018793;28;20511;-68
2022/01/16 14:33:39;;;;;;;87.85;34.28;;;;;;;;;;5021557;28;20140;-67
2022/01/16 14:36:05;;;;;;;76.60;31.05;;;;;;;;;;5007485;28;20420;-68
2022/01/16 14:38:35;;;;;;;73.90;31.77;;;;;;;;;;5023284;28;20346;-67
2022/01/16 14:41:01;;;;;;;85.60;32.47;;;;;;;;;;5012703;28;20512;-67
2022/01/16 14:43:28;;;;;;;71.45;30.73;;;;;;;;;;5006952;28;20066;-67
2022/01/16 14:45:55;;;;;;;63.03;29.92;;;;;;;;;;5011999;28;20055;-67
2022/01/16 14:48:21;;;;;;;75.38;31.92;;;;;;;;;;5003456;28;20056;-67
2022/01/16 14:50:48;;;;;;;70.13;30.52;;;;;;;;;;5019955;28;20057;-67
2022/01/16 14:53:17;;;;;;;66.75;29.10;;;;;;;;;;5011338;28;20056;-68
2022/01/16 14:55:43;;;;;;;;;;;;;;;;;;5017602;28;20483;-68
2022/01/16 14:58:09;;;;;;;65.10;29.25;;;;;;;;;;5015968;28;19932;-68
2022/01/16 15:00:36;;;;;;;61.28;27.67;;;;;;;;;;5021061;28;20057;-67
2022/01/16 15:03:02;;;;;;;70.88;31.38;;;;;;;;;;5014490;28;20119;-68